CheckWX is a tool to help pilots better visualize weather data.  It is not intended as a substitute for an official pre-flight weather briefing.

06:49:10 UTC

EVRA TAF
Riga International Airport
Riga, Latvia
TAF EVRA 270500Z 2706/2806 14007KT 9999 BKN030 BECMG 2712/2714 BKN012 OVC020 TEMPO 2714/2718 4000 RASN BKN007 OVC020 BECMG 2723/2801 31010KT TEMPO 2800/2806 4000 SN

Feb-27@
06:00 UTC

Feb-27 @ 06:00 UTC

Feb-27@
12:00 UTC

Feb-27 @ 12:00 UTC

TAF EVRA 270500Z 2706/2806 14007KT 9999 BKN030
Wind
  • 140° at 7 KTS
Cloud Levels
  • Broken at 3,000' AGL

Feb-27@
12:00 UTC

Feb-27 @ 12:00 UTC

Feb-27@
23:00 UTC

Feb-27 @ 23:00 UTC

BECMG 2712/2714 BKN012 OVC020

Becoming

Becoming Conditions expected by Thu, Feb 27, 2020 @ 14:00 UTC

Wind
  • 140° at 7 KTS
Cloud Levels
  • Broken at 1,200' AGL
  • Overcast at 2,000' AGL

Feb-27@
14:00 UTC

Feb-27 @ 14:00 UTC

Feb-27@
18:00 UTC

Feb-27 @ 18:00 UTC

TEMPO 2714/2718 4000 RASN BKN007 OVC020

Temporary

Temporary Changes expected for less than half the time period

Conditions
Rain, Snow
Cloud Levels
  • Broken at 700' AGL
  • Overcast at 2,000' AGL

Feb-27@
23:00 UTC

Feb-27 @ 23:00 UTC

Feb-28@
06:00 UTC

Feb-28 @ 06:00 UTC

BECMG 2723/2801 31010KT

Becoming

Becoming Conditions expected by Fri, Feb 28, 2020 @ 01:00 UTC

Wind
  • 310° at 10 KTS
Cloud Levels
  • Broken at 1,200' AGL
  • Overcast at 2,000' AGL

Feb-28@
00:00 UTC

Feb-28 @ 00:00 UTC

Feb-28@
06:00 UTC

Feb-28 @ 06:00 UTC

TEMPO 2800/2806 4000 SN

Temporary

Temporary Changes expected for less than half the time period

Conditions
Snow